createdAt,value
2023-04-18T00:00:26.212Z,6.699
2023-04-18T00:01:27.127Z,7.199
2023-04-18T00:02:42.665Z,6.300
2023-04-18T00:03:24.355Z,6.400
2023-04-18T00:04:24.205Z,6.699
2023-04-18T00:07:23.641Z,7.099
2023-04-18T00:08:23.530Z,6.900
2023-04-18T00:09:23.589Z,7
2023-04-18T00:10:23.817Z,7.400
2023-04-18T00:11:23.571Z,6.699
2023-04-18T00:12:23.488Z,6.800
2023-04-18T00:13:23.791Z,6.900
2023-04-18T00:14:23.667Z,7
2023-04-18T00:15:23.686Z,7.099
2023-04-18T00:16:23.770Z,6.900
2023-04-18T00:18:23.966Z,6.800
2023-04-18T00:19:23.744Z,6.400
2023-04-18T00:20:23.877Z,6.300
2023-04-18T00:21:23.795Z,6.900
2023-04-18T00:22:23.186Z,7.199
2023-04-18T00:23:23.506Z,6.900
2023-04-18T00:24:23.230Z,6.800
2023-04-18T00:25:23.744Z,6.900
2023-04-18T00:26:23.617Z,6.599
2023-04-18T00:27:23.462Z,6.699
2023-04-18T00:28:23.319Z,6.900
2023-04-18T00:29:23.520Z,7
2023-04-18T00:30:23.821Z,6.400
2023-04-18T00:31:24.164Z,7
2023-04-18T00:32:23.342Z,6.5
2023-04-18T00:33:23.333Z,7
2023-04-18T00:34:23.180Z,6.699
2023-04-18T00:35:23.217Z,6.800
2023-04-18T00:36:23.403Z,6.5
2023-04-18T00:37:23.405Z,7.599
2023-04-18T00:38:23.743Z,6.800
2023-04-18T00:39:23.699Z,7
2023-04-18T00:40:23.707Z,6.800
2023-04-18T00:42:23.843Z,7.400
2023-04-18T00:43:23.902Z,6.900
2023-04-18T00:44:23.336Z,7
2023-04-18T00:46:23.713Z,7.199
2023-04-18T00:47:23.632Z,6.699
2023-04-18T00:48:23.954Z,7.699
2023-04-18T00:49:24.291Z,6.900
2023-04-18T00:50:23.770Z,7.599
2023-04-18T00:51:23.786Z,6.900
2023-04-18T00:52:23.283Z,7.199
2023-04-18T00:53:23.859Z,7.599
2023-04-18T00:55:23.476Z,7.099
2023-04-18T00:56:23.841Z,7.599
2023-04-18T00:57:23.702Z,7.699
2023-04-18T00:59:23.880Z,7.800
2023-04-18T01:00:24.805Z,8.100
2023-04-18T01:01:23.991Z,7.599
2023-04-18T01:03:23.679Z,7.900
2023-04-18T01:04:24.077Z,7.5
2023-04-18T01:05:23.386Z,8
2023-04-18T01:06:23.793Z,7.900
2023-04-18T01:07:23.701Z,8
2023-04-18T01:08:23.473Z,8.100
2023-04-18T01:09:23.740Z,8.300
2023-04-18T01:10:23.571Z,7.800
2023-04-18T01:11:23.826Z,7.699
2023-04-18T01:12:23.526Z,8.100
2023-04-18T01:13:24.144Z,8.300
2023-04-18T01:14:23.545Z,8.600
2023-04-18T01:15:23.684Z,7.699
2023-04-18T01:16:24.084Z,8
2023-04-18T01:17:23.908Z,8.699
2023-04-18T01:18:24.204Z,8.399
2023-04-18T01:19:23.887Z,8.300
2023-04-18T01:20:24.728Z,7.900
2023-04-18T01:21:24.556Z,7.800
2023-04-18T01:22:23.840Z,8.199
2023-04-18T01:23:24.249Z,7.800
2023-04-18T01:24:23.535Z,8.100
2023-04-18T01:25:23.821Z,7.699
2023-04-18T01:26:23.908Z,8.100
2023-04-18T01:27:23.578Z,8.300
2023-04-18T01:28:23.987Z,8.600
2023-04-18T01:29:23.442Z,8.699
2023-04-18T01:30:24.000Z,8.199
2023-04-18T01:31:23.799Z,8.100
2023-04-18T01:32:24.343Z,8
2023-04-18T01:33:23.920Z,8.300
2023-04-18T01:34:23.931Z,7.800
2023-04-18T01:35:24.175Z,8.300
2023-04-18T01:36:24.198Z,8
2023-04-18T01:37:23.314Z,8.600
2023-04-18T01:38:23.318Z,7.400
2023-04-18T01:39:23.495Z,8.100
2023-04-18T01:40:23.859Z,7.800
2023-04-18T01:41:23.712Z,8.399
2023-04-18T01:42:23.853Z,8.100
2023-04-18T01:44:24.032Z,7.699
2023-04-18T01:45:24.690Z,8.100
2023-04-18T01:46:23.938Z,7.900
2023-04-18T01:47:23.095Z,8.199
2023-04-18T01:48:23.687Z,8
2023-04-18T01:49:24.135Z,7.800
2023-04-18T01:50:23.166Z,8
2023-04-18T01:51:23.176Z,8.399
2023-04-18T01:52:23.249Z,8.199
2023-04-18T01:54:23.678Z,8
2023-04-18T01:55:24.360Z,8.399
2023-04-18T01:56:23.694Z,8.300
2023-04-18T01:57:23.998Z,7.900
2023-04-18T01:58:24.101Z,8.300
2023-04-18T01:59:23.781Z,7.900
2023-04-18T02:00:24.709Z,7.5
2023-04-18T02:01:24.126Z,8
2023-04-18T02:02:23.598Z,7.400
2023-04-18T02:03:23.996Z,8.300
2023-04-18T02:04:23.683Z,8
2023-04-18T02:05:24.050Z,8.100
2023-04-18T02:06:24.231Z,8.600
2023-04-18T02:07:23.565Z,8
2023-04-18T02:08:23.545Z,7.800
2023-04-18T02:09:24.697Z,8
2023-04-18T02:10:24.469Z,7.5
2023-04-18T02:11:23.533Z,8.399
2023-04-18T02:12:23.564Z,7.800
2023-04-18T02:13:23.651Z,8.100
2023-04-18T02:14:23.656Z,7.599
2023-04-18T02:15:23.769Z,8.100
2023-04-18T02:16:24.093Z,7.900
2023-04-18T02:17:24.110Z,8
2023-04-18T02:19:23.760Z,7.699
2023-04-18T02:20:23.797Z,8
2023-04-18T02:21:23.711Z,7.699
2023-04-18T02:22:23.620Z,7.900
2023-04-18T02:23:23.516Z,8.300
2023-04-18T02:24:23.501Z,7.699
2023-04-18T02:25:23.975Z,8.199
2023-04-18T02:26:23.464Z,7.800
2023-04-18T02:27:23.290Z,7.699
2023-04-18T02:28:23.455Z,8
2023-04-18T02:30:24.498Z,8.5
2023-04-18T02:31:23.110Z,8.100
2023-04-18T02:32:23.635Z,8.199
2023-04-18T02:33:23.625Z,8.100
2023-04-18T02:35:23.592Z,8
2023-04-18T02:36:23.450Z,8.5
2023-04-18T02:37:23.428Z,8.600
2023-04-18T02:39:23.815Z,7.800
2023-04-18T02:40:23.842Z,8.5
2023-04-18T02:41:23.623Z,8.199
2023-04-18T02:42:23.158Z,8.300
2023-04-18T02:43:23.568Z,8.699
2023-04-18T02:44:23.203Z,8.300
2023-04-18T02:45:23.655Z,8.600
2023-04-18T02:47:23.508Z,8.399
2023-04-18T02:48:23.616Z,8.800
2023-04-18T02:49:24.016Z,8.399
2023-04-18T02:50:23.732Z,8.300
2023-04-18T02:51:23.258Z,8.5
2023-04-18T02:52:23.932Z,9.100
2023-04-18T02:53:24.222Z,8.899
2023-04-18T02:54:23.680Z,8.800
2023-04-18T02:55:23.842Z,8.699
2023-04-18T02:56:24.049Z,8.800
2023-04-18T02:57:24.037Z,9
2023-04-18T02:58:23.841Z,9.100
2023-04-18T03:00:24.893Z,9.199
2023-04-18T03:02:28.446Z,9.300
2023-04-18T03:03:23.971Z,9
2023-04-18T03:04:24.369Z,8.699
2023-04-18T03:07:24.184Z,8.899
2023-04-18T03:08:23.557Z,8.699
2023-04-18T03:09:24.116Z,8.899
2023-04-18T03:13:23.810Z,8.699
2023-04-18T03:16:24.124Z,8.800
2023-04-18T03:17:23.893Z,9
2023-04-18T03:18:23.923Z,8.699
2023-04-18T03:19:24.004Z,9
2023-04-18T03:20:24.208Z,8.899
2023-04-18T03:21:23.574Z,8.600
2023-04-18T03:22:23.472Z,8.800
2023-04-18T03:23:23.526Z,8.399
2023-04-18T03:24:23.373Z,9.300
2023-04-18T03:25:23.684Z,8.399
2023-04-18T03:26:23.662Z,8.899
2023-04-18T03:27:23.304Z,8.800
2023-04-18T03:28:23.256Z,8.899
2023-04-18T03:29:23.034Z,8.699
2023-04-18T03:31:23.692Z,8.800
2023-04-18T03:32:23.882Z,9.399
2023-04-18T03:33:23.852Z,8.800
2023-04-18T03:35:23.659Z,9
2023-04-18T03:36:24.095Z,9.5
2023-04-18T03:37:23.314Z,9.300
2023-04-18T03:39:24.442Z,9.600
2023-04-18T03:40:24.407Z,8.899
2023-04-18T03:41:23.882Z,9
2023-04-18T03:42:24.197Z,9.5
2023-04-18T03:43:23.366Z,9.100
2023-04-18T03:44:23.421Z,9.5
2023-04-18T03:45:24.063Z,9.699
2023-04-18T03:46:24.110Z,9.600
2023-04-18T03:47:23.466Z,9.100
2023-04-18T03:49:23.277Z,9.199
2023-04-18T03:50:23.875Z,8.399
2023-04-18T03:51:23.214Z,8.899
2023-04-18T03:52:23.377Z,8.699
2023-04-18T03:53:23.438Z,9.5
2023-04-18T03:54:23.419Z,9.199
2023-04-18T03:55:23.199Z,9.300
2023-04-18T03:56:23.810Z,8.800
2023-04-18T03:57:23.177Z,8.699
2023-04-18T03:58:23.425Z,9.5
2023-04-18T03:59:23.427Z,8.899
2023-04-18T04:00:25.066Z,9.399
2023-04-18T04:01:23.345Z,8.899
2023-04-18T04:02:23.923Z,9.399
2023-04-18T04:03:23.500Z,9
2023-04-18T04:04:24.420Z,8.899
2023-04-18T04:05:24.673Z,9.199
2023-04-18T04:06:23.828Z,9.600
2023-04-18T04:07:23.849Z,9.399
2023-04-18T04:08:23.464Z,9.100
2023-04-18T04:09:23.730Z,9.699
2023-04-18T04:10:23.691Z,8.699
2023-04-18T04:12:23.913Z,8.800
2023-04-18T04:13:23.876Z,9.100
2023-04-18T04:14:23.753Z,8.800
2023-04-18T04:15:24.069Z,8.600
2023-04-18T04:16:23.594Z,9.100
2023-04-18T04:17:23.849Z,9.399
2023-04-18T04:18:23.752Z,9.199
2023-04-18T04:19:23.763Z,9
2023-04-18T04:20:29.083Z,8.399
2023-04-18T04:21:23.695Z,9.5
2023-04-18T04:22:23.611Z,8.699
2023-04-18T04:23:23.653Z,9.300
2023-04-18T04:24:23.834Z,9.100
2023-04-18T04:25:24.318Z,8.800
2023-04-18T04:26:23.750Z,9
2023-04-18T04:28:23.923Z,9.100
2023-04-18T04:29:24.496Z,9
2023-04-18T04:30:24.483Z,8.899
2023-04-18T04:31:24.145Z,8.699
2023-04-18T04:32:32.137Z,9.100
2023-04-18T04:34:24.140Z,8.5
2023-04-18T04:35:23.438Z,9
2023-04-18T04:36:24.380Z,8.600
2023-04-18T04:37:23.730Z,9.199
2023-04-18T04:38:24.310Z,9
2023-04-18T04:40:24.079Z,8.5
2023-04-18T04:41:23.562Z,9.600
2023-04-18T04:42:23.898Z,9.300
2023-04-18T04:43:23.873Z,8.899
2023-04-18T04:44:23.689Z,8.600
2023-04-18T04:45:24.776Z,9.100
2023-04-18T04:46:24.101Z,8.899
2023-04-18T04:47:23.671Z,8.399
2023-04-18T04:48:23.893Z,8.300
2023-04-18T04:49:23.966Z,8.699
2023-04-18T04:50:38.801Z,9
2023-04-18T04:51:24.175Z,8.600
2023-04-18T04:52:23.882Z,8.800
2023-04-18T04:53:24.296Z,8.5
2023-04-18T04:54:23.969Z,8.600
2023-04-18T04:55:23.734Z,9.100
2023-04-18T04:56:23.809Z,9
2023-04-18T04:57:23.385Z,8.899
2023-04-18T04:58:24.525Z,9
2023-04-18T04:59:24.607Z,9.300
2023-04-18T05:00:24.353Z,8.800
2023-04-18T05:01:24.011Z,9.800
2023-04-18T05:02:23.669Z,9
2023-04-18T05:03:24.083Z,9.399
2023-04-18T05:04:24.035Z,8.800
2023-04-18T05:05:23.878Z,8.699
2023-04-18T05:06:24.345Z,8.800
2023-04-18T05:07:23.518Z,9.199
2023-04-18T05:08:23.834Z,8.699
2023-04-18T05:09:23.775Z,8.399
2023-04-18T05:10:24.278Z,8.899
2023-04-18T05:11:23.636Z,8.699
2023-04-18T05:12:23.657Z,8.899
2023-04-18T05:13:24.120Z,8.699
2023-04-18T05:14:23.411Z,9
2023-04-18T05:15:24.793Z,8.5
2023-04-18T05:16:23.912Z,8.800
2023-04-18T05:17:23.736Z,9.100
2023-04-18T05:18:23.694Z,8.899
2023-04-18T05:19:24.030Z,9.399
2023-04-18T05:20:24.287Z,9.699
2023-04-18T05:21:23.815Z,9.5
2023-04-18T05:22:24.097Z,9.199
2023-04-18T05:23:24.168Z,9.100
2023-04-18T05:24:23.712Z,9.399
2023-04-18T05:25:24.473Z,9.600
2023-04-18T05:26:24.383Z,9.199
2023-04-18T05:27:24.169Z,9.100
2023-04-18T05:28:24.104Z,8.899
2023-04-18T05:29:23.599Z,9.5
2023-04-18T05:30:24.561Z,8.800
2023-04-18T05:31:24.411Z,9.100
2023-04-18T05:32:24.201Z,9
2023-04-18T05:33:24.314Z,9.100
2023-04-18T05:34:24.386Z,8.600
2023-04-18T05:35:24.777Z,9.100
2023-04-18T05:36:23.599Z,9.300
2023-04-18T05:37:24.113Z,9.100
2023-04-18T05:38:23.585Z,9.199
2023-04-18T05:39:24.161Z,9
2023-04-18T05:40:23.767Z,9.100
2023-04-18T05:41:24.165Z,8.899
2023-04-18T05:42:23.466Z,9.600
2023-04-18T05:43:23.484Z,9.5
2023-04-18T05:44:24.363Z,9.399
2023-04-18T05:45:24.084Z,9.199
2023-04-18T05:48:24.216Z,8.5
2023-04-18T05:49:23.976Z,8.699
2023-04-18T05:50:23.738Z,9
2023-04-18T05:51:24.204Z,9.199
2023-04-18T05:52:24.054Z,9.300
2023-04-18T05:53:23.645Z,8.699
2023-04-18T05:54:24.098Z,9.100
2023-04-18T05:55:24.131Z,9.300
2023-04-18T05:56:23.848Z,9.100
2023-04-18T05:57:24.104Z,8.699
2023-04-18T05:58:24.212Z,9.5
2023-04-18T05:59:23.702Z,9
2023-04-18T06:00:25.520Z,9.199
2023-04-18T06:01:23.999Z,9.100
2023-04-18T06:02:23.803Z,9.199
2023-04-18T06:03:24.108Z,9.600
2023-04-18T06:04:24.314Z,9.899
2023-04-18T06:05:24.396Z,10
2023-04-18T06:06:23.706Z,9.600
2023-04-18T06:07:24.618Z,9.399
2023-04-18T06:08:24.316Z,10.30
2023-04-18T06:09:23.974Z,9.800
2023-04-18T06:11:24.266Z,10.30
2023-04-18T06:12:24.346Z,9.600
2023-04-18T06:13:23.956Z,9.899
2023-04-18T06:14:23.855Z,9.800
2023-04-18T06:15:24.962Z,9.600
2023-04-18T06:16:24.052Z,10
2023-04-18T06:17:23.582Z,9.899
2023-04-18T06:18:24.164Z,10.10
2023-04-18T06:21:24.112Z,9.399
2023-04-18T06:22:23.915Z,10
2023-04-18T06:23:24.277Z,9.699
2023-04-18T06:25:23.830Z,9.5
2023-04-18T06:26:23.789Z,8.800
2023-04-18T06:27:30.663Z,9.399
2023-04-18T06:28:23.742Z,9.600
2023-04-18T06:29:23.945Z,9.300
2023-04-18T06:30:24.792Z,10.30
2023-04-18T06:31:24.023Z,10.10
2023-04-18T06:32:23.827Z,10.39
2023-04-18T06:34:24.175Z,10.80
2023-04-18T06:36:24.480Z,11.10
2023-04-18T06:37:24.033Z,11.39
2023-04-18T06:38:23.701Z,11
2023-04-18T06:39:23.605Z,10.89
2023-04-18T06:40:24.440Z,10.80
2023-04-18T06:43:28.824Z,11.10
2023-04-18T06:44:23.914Z,11.5
2023-04-18T06:45:28.658Z,11.60
2023-04-18T06:46:23.956Z,11.89
2023-04-18T06:47:23.680Z,11.5
2023-04-18T06:48:24.619Z,11.60
2023-04-18T06:49:26.357Z,12
2023-04-18T06:51:23.520Z,11.5
2023-04-18T06:52:23.998Z,11.69
2023-04-18T06:53:23.329Z,11.89
2023-04-18T06:54:24.194Z,13.10
2023-04-18T06:55:24.055Z,12.60
2023-04-18T06:56:23.815Z,12.69
2023-04-18T06:57:23.799Z,12.19
2023-04-18T06:58:24.026Z,12.5
2023-04-18T06:59:24.015Z,12.10
2023-04-18T07:00:24.610Z,12.19
2023-04-18T07:01:32.726Z,11.30
2023-04-18T07:02:23.473Z,12.30
2023-04-18T07:03:24.529Z,12.60
2023-04-18T07:04:24.828Z,12.19
2023-04-18T07:05:23.937Z,12.30
2023-04-18T07:07:23.958Z,12
2023-04-18T07:08:24.622Z,12.30
2023-04-18T07:09:24.162Z,11.80
2023-04-18T07:10:24.475Z,12.30
2023-04-18T07:11:24.204Z,11.80
2023-04-18T07:12:23.848Z,11.60
2023-04-18T07:13:24.283Z,11.89
2023-04-18T07:14:23.738Z,11.60
2023-04-18T07:15:24.313Z,11.80
2023-04-18T07:16:23.988Z,11.39
2023-04-18T07:17:23.797Z,11.5
2023-04-18T07:18:36.598Z,11.69
2023-04-18T07:19:24.026Z,11.60
2023-04-18T07:20:24.108Z,11.39
2023-04-18T07:21:24.028Z,11.19
2023-04-18T07:22:24.227Z,10.80
2023-04-18T07:23:23.931Z,11.60
2023-04-18T07:24:23.811Z,11.10
2023-04-18T07:25:25.014Z,10.60
2023-04-18T07:26:24.074Z,11
2023-04-18T07:27:24.128Z,10.69
2023-04-18T07:28:23.619Z,11.30
2023-04-18T07:29:23.989Z,11.60
2023-04-18T07:30:26.678Z,12
2023-04-18T07:31:24.403Z,12.10
2023-04-18T07:32:24.051Z,11.10
2023-04-18T07:33:24.052Z,11.30
2023-04-18T07:34:24.139Z,10.39
2023-04-18T07:35:23.961Z,10
2023-04-18T07:36:24.071Z,10.69
2023-04-18T07:37:23.856Z,11.39
2023-04-18T07:38:24.223Z,10.80
2023-04-18T07:39:23.803Z,11
2023-04-18T07:40:24.600Z,11.19
2023-04-18T07:41:24.164Z,10.80
2023-04-18T07:42:23.719Z,11.10
2023-04-18T07:43:23.794Z,10.80
2023-04-18T07:44:24.024Z,10.5
2023-04-18T07:45:24.091Z,11
2023-04-18T07:46:24.549Z,10.39
2023-04-18T07:47:24.070Z,10
2023-04-18T07:48:24.057Z,10.80
2023-04-18T07:49:24.327Z,11.19
2023-04-18T07:50:23.851Z,11.5
2023-04-18T07:51:23.917Z,10.69
2023-04-18T07:53:23.936Z,10
2023-04-18T07:54:24.029Z,10.30
2023-04-18T07:55:24.496Z,10.69
2023-04-18T07:56:23.997Z,10.80
2023-04-18T07:57:23.682Z,11.30
2023-04-18T07:58:23.932Z,10.69
2023-04-18T07:59:24.627Z,11
2023-04-18T08:00:25.396Z,10.80
2023-04-18T08:03:23.762Z,10.5
2023-04-18T08:04:23.659Z,9.699
2023-04-18T08:05:24.207Z,10
2023-04-18T08:06:23.844Z,11.10
2023-04-18T08:07:23.424Z,10.80
2023-04-18T08:08:24.299Z,10
2023-04-18T08:09:23.543Z,10.39
2023-04-18T08:10:24.093Z,10.30
2023-04-18T08:11:23.312Z,9.699
2023-04-18T08:12:23.951Z,10.30
2023-04-18T08:13:23.420Z,9.600
2023-04-18T08:14:23.732Z,9.199
2023-04-18T08:15:23.897Z,8.800
2023-04-18T08:16:23.723Z,8.399
2023-04-18T08:17:23.774Z,9
2023-04-18T08:18:23.774Z,7.900
2023-04-18T08:19:23.860Z,8.699
2023-04-18T08:20:23.927Z,9.100
2023-04-18T08:21:23.931Z,9.399
2023-04-18T08:22:24.115Z,9.5
2023-04-18T08:23:23.541Z,9.399
2023-04-18T08:24:23.731Z,9
2023-04-18T08:26:23.689Z,8.899
2023-04-18T08:27:24.034Z,9.300
2023-04-18T08:28:23.753Z,9.800
2023-04-18T08:29:23.557Z,9.399
2023-04-18T08:30:24.173Z,9.100
2023-04-18T08:33:24.287Z,8.899
2023-04-18T08:34:23.855Z,9.199
2023-04-18T08:35:23.967Z,8.899
2023-04-18T08:36:23.426Z,8.5
2023-04-18T08:37:23.885Z,8.100
2023-04-18T08:38:23.729Z,7.900
2023-04-18T08:40:24.003Z,8.399
2023-04-18T08:41:24.058Z,7.900
2023-04-18T08:42:24.160Z,7.199
2023-04-18T08:43:23.725Z,7.800
2023-04-18T08:44:23.773Z,8.399
2023-04-18T08:45:23.780Z,8.100
2023-04-18T08:47:23.865Z,7.800
2023-04-18T08:49:24.469Z,8.399
2023-04-18T08:50:24.210Z,7.599
2023-04-18T08:51:23.709Z,8.100
2023-04-18T08:52:23.461Z,7.599
2023-04-18T08:53:23.554Z,7.5
2023-04-18T08:54:25.081Z,8.399
2023-04-18T08:55:24.157Z,8.300
2023-04-18T08:56:23.877Z,7.800
2023-04-18T08:57:24.189Z,8.699
2023-04-18T08:58:23.885Z,8
2023-04-18T09:01:23.474Z,7.900
2023-04-18T09:02:23.879Z,7.599
2023-04-18T09:03:23.642Z,8.100
2023-04-18T09:04:24.226Z,7.400
2023-04-18T09:05:24.002Z,7.300
2023-04-18T09:06:25.163Z,8
2023-04-18T09:07:24.421Z,8.100
2023-04-18T09:08:23.549Z,7.900
2023-04-18T09:09:23.728Z,8.399
2023-04-18T09:10:24.392Z,7.900
2023-04-18T09:11:23.890Z,7.699
2023-04-18T09:12:28.748Z,8.5
2023-04-18T09:13:24.625Z,8
2023-04-18T09:14:23.894Z,7.800
2023-04-18T09:15:24.445Z,7.599
2023-04-18T09:16:23.812Z,7.800
2023-04-18T09:17:24.394Z,7.900
2023-04-18T09:18:29.277Z,7.599
2023-04-18T09:19:23.523Z,7.699
2023-04-18T09:20:24.118Z,7.300
2023-04-18T09:21:23.812Z,8.199
2023-04-18T09:22:24.329Z,7.400
2023-04-18T09:23:24.121Z,7.5
2023-04-18T09:25:24.177Z,7.800
2023-04-18T09:26:32.133Z,7.599
2023-04-18T09:27:23.728Z,7.800
2023-04-18T09:29:23.725Z,7.599
2023-04-18T09:30:38.237Z,7.699
2023-04-18T09:31:23.814Z,7.800
2023-04-18T09:32:24.450Z,7.300
2023-04-18T09:33:23.933Z,8
2023-04-18T09:34:37.818Z,7.699
2023-04-18T09:35:24.451Z,7.900
2023-04-18T09:36:24.022Z,7.699
2023-04-18T09:37:24.033Z,7.800
2023-04-18T09:38:24.219Z,7.599
2023-04-18T09:39:24.342Z,7.900
2023-04-18T09:40:24.677Z,7.5
2023-04-18T09:41:24.836Z,7.800
2023-04-18T09:42:23.613Z,7.5
2023-04-18T09:43:24.236Z,7.699
2023-04-18T09:44:24.061Z,7.300
2023-04-18T09:45:23.901Z,7.199
2023-04-18T09:46:24.348Z,7.300
2023-04-18T09:47:23.762Z,7.599
2023-04-18T09:48:23.870Z,7.099
2023-04-18T09:49:24.501Z,7.199
2023-04-18T09:50:23.846Z,7.300
2023-04-18T09:51:24.323Z,7.199
2023-04-18T09:52:23.960Z,7.300
2023-04-18T09:53:23.911Z,7.400
2023-04-18T09:54:24.135Z,7.199
2023-04-18T09:55:23.551Z,6.800
2023-04-18T09:56:23.400Z,7.199
2023-04-18T09:57:23.899Z,7.099
2023-04-18T09:58:24.386Z,6.599
2023-04-18T09:59:23.917Z,6.800
2023-04-18T10:01:24.243Z,6.599
2023-04-18T10:02:23.815Z,6.5
2023-04-18T10:03:24.392Z,6.599
2023-04-18T10:04:23.583Z,6.400
2023-04-18T10:05:24.243Z,6.5
2023-04-18T10:06:23.993Z,6.199
2023-04-18T10:07:23.471Z,6.599
2023-04-18T10:08:23.893Z,6.400
2023-04-18T10:09:23.591Z,6.5
2023-04-18T10:10:24.022Z,6.199
2023-04-18T10:11:23.772Z,6.400
2023-04-18T10:12:23.929Z,6.300
2023-04-18T10:13:23.903Z,6.099
2023-04-18T10:14:23.930Z,6.199
2023-04-18T10:15:24.115Z,6.099
2023-04-18T10:16:23.547Z,6.400
2023-04-18T10:17:24.168Z,6.800
2023-04-18T10:18:24.167Z,6.599
2023-04-18T10:19:23.857Z,7
2023-04-18T10:20:24.289Z,6.599
2023-04-18T10:21:23.576Z,6.5
2023-04-18T10:22:23.836Z,6.400
2023-04-18T10:23:27.000Z,6.300
2023-04-18T10:25:24.304Z,6
2023-04-18T10:26:23.524Z,6.699
2023-04-18T10:27:24.040Z,6.199
2023-04-18T10:28:23.964Z,6.900
2023-04-18T10:29:23.997Z,6.099
2023-04-18T10:30:24.044Z,6.400
2023-04-18T10:31:24.200Z,6.599
2023-04-18T10:32:23.965Z,6.400
2023-04-18T10:34:24.227Z,6.400
2023-04-18T10:38:23.884Z,6
2023-04-18T10:39:24.314Z,6.099
2023-04-18T10:40:23.986Z,6.400
2023-04-18T10:41:23.932Z,6.5
2023-04-18T10:42:23.225Z,6.199
2023-04-18T10:43:23.734Z,5.699
2023-04-18T10:44:23.939Z,5.400
2023-04-18T10:45:24.565Z,6.199
2023-04-18T10:46:31.850Z,5.800
2023-04-18T10:47:23.371Z,6.400
2023-04-18T10:48:24.101Z,6
2023-04-18T10:49:26.054Z,5.800
2023-04-18T10:50:24.311Z,5.400
2023-04-18T10:51:24.010Z,5.599
2023-04-18T10:52:23.587Z,6
2023-04-18T10:53:23.837Z,6.199
2023-04-18T10:55:23.599Z,5.900
2023-04-18T10:56:23.807Z,6.400
2023-04-18T10:57:23.909Z,6.300
2023-04-18T10:58:24.352Z,6.699
2023-04-18T10:59:23.749Z,6.599
2023-04-18T11:00:25.428Z,7.400
2023-04-18T11:01:24.068Z,7
2023-04-18T11:02:23.721Z,7.599
2023-04-18T11:03:24.203Z,7.099
2023-04-18T11:04:23.832Z,7.400
2023-04-18T11:05:24.377Z,6.699
2023-04-18T11:07:23.698Z,6.5
2023-04-18T11:08:24.078Z,6.699
2023-04-18T11:09:23.409Z,7.099
2023-04-18T11:10:24.076Z,7
2023-04-18T11:11:23.781Z,7.300
2023-04-18T11:12:25.235Z,6.900
2023-04-18T11:13:24.089Z,6.800
2023-04-18T11:14:23.499Z,7
2023-04-18T11:15:24.187Z,7.099
2023-04-18T11:16:24.397Z,7.199
2023-04-18T11:20:23.731Z,7.300
2023-04-18T11:21:23.953Z,6.699
2023-04-18T11:22:24.373Z,6.900
2023-04-18T11:23:23.700Z,7.199
2023-04-18T11:24:23.970Z,7.099
2023-04-18T11:26:23.788Z,7.300
2023-04-18T11:27:23.796Z,7.400
2023-04-18T11:28:24.082Z,7.199
2023-04-18T11:29:24.402Z,7.099
2023-04-18T11:30:24.298Z,6.900
2023-04-18T11:31:23.675Z,6.699
2023-04-18T11:32:23.922Z,6.800
2023-04-18T11:33:28.975Z,6.5
2023-04-18T11:34:24.328Z,7
2023-04-18T11:35:23.747Z,6.099
2023-04-18T11:36:23.899Z,6.800
2023-04-18T11:37:24.056Z,5.900
2023-04-18T11:38:24.346Z,6.199
2023-04-18T11:40:25.185Z,6
2023-04-18T11:41:29.237Z,6.099
2023-04-18T11:42:23.887Z,6.599
2023-04-18T11:43:23.630Z,7.599
2023-04-18T11:44:23.882Z,8.100
2023-04-18T11:45:24.267Z,8.600
2023-04-18T11:46:23.688Z,8
2023-04-18T11:47:23.999Z,6.599
2023-04-18T11:48:23.780Z,6.400
2023-04-18T11:49:23.637Z,6.699
2023-04-18T11:50:24.455Z,6.900
2023-04-18T11:51:23.821Z,6.699
2023-04-18T11:52:23.877Z,6.300
2023-04-18T11:53:24.546Z,6.699
2023-04-18T11:54:23.827Z,6.800
2023-04-18T11:55:24.582Z,7.199
2023-04-18T11:56:23.404Z,7
2023-04-18T11:57:38.144Z,6.699
2023-04-18T11:58:24.255Z,5.900
2023-04-18T11:59:23.514Z,6.900
2023-04-18T12:00:24.853Z,7
2023-04-18T12:01:38.174Z,7.099
2023-04-18T12:02:24.507Z,6.800
2023-04-18T12:03:24.142Z,7.699
2023-04-18T12:04:24.380Z,7.400
2023-04-18T12:05:38.626Z,7.099
2023-04-18T12:06:24.471Z,6.699
2023-04-18T12:07:23.727Z,6.900
2023-04-18T12:08:24.082Z,6.5
2023-04-18T12:09:24.193Z,7.300
2023-04-18T12:10:23.706Z,6.699
2023-04-18T12:12:23.938Z,7.099
2023-04-18T12:13:24.406Z,6.800
2023-04-18T12:15:24.561Z,7.300
2023-04-18T12:16:24.722Z,8.199
2023-04-18T12:17:24.163Z,7.400
2023-04-18T12:18:23.688Z,7.300
2023-04-18T12:19:23.658Z,7
2023-04-18T12:20:24.240Z,6.900
2023-04-18T12:21:23.913Z,6.599
2023-04-18T12:22:23.954Z,6.300
2023-04-18T12:23:24.037Z,6.699
2023-04-18T12:24:24.114Z,6.300
2023-04-18T12:25:26.907Z,6.699
2023-04-18T12:26:23.642Z,6.300
2023-04-18T12:27:23.851Z,6.800
2023-04-18T12:29:24.030Z,7
2023-04-18T12:30:23.946Z,7.099
2023-04-18T12:31:24.198Z,6.599
2023-04-18T12:32:23.978Z,7.099
2023-04-18T12:33:24.147Z,6.800
2023-04-18T12:34:23.831Z,7.099
2023-04-18T12:35:24.224Z,7
2023-04-18T12:36:23.457Z,7.199
2023-04-18T12:37:24.445Z,7.099
2023-04-18T12:38:23.782Z,6.699
2023-04-18T12:39:24.029Z,6.599
2023-04-18T12:40:24.504Z,6.900
2023-04-18T12:41:23.475Z,6.5
2023-04-18T12:43:23.969Z,6.599
2023-04-18T12:44:23.491Z,7
2023-04-18T12:45:24.205Z,6.800
2023-04-18T12:48:23.810Z,7
2023-04-18T12:49:24.007Z,7.099
2023-04-18T12:50:24.108Z,7.300
2023-04-18T12:51:23.858Z,7.099
2023-04-18T12:52:24.370Z,7
2023-04-18T12:53:23.791Z,6.900
2023-04-18T12:54:24.366Z,7
2023-04-18T12:55:23.715Z,7.099
2023-04-18T12:56:23.895Z,6.900
2023-04-18T12:58:24.196Z,7.300
2023-04-18T12:59:23.645Z,7.099
2023-04-18T13:00:24.459Z,6.800
2023-04-18T13:01:24.229Z,7.199
2023-04-18T13:02:24.013Z,6.199
2023-04-18T13:03:24.288Z,6.599
2023-04-18T13:04:23.771Z,7.099
2023-04-18T13:05:24.729Z,7.199
2023-04-18T13:06:24.087Z,6.699
2023-04-18T13:07:24.340Z,6.599
2023-04-18T13:08:24.036Z,6
2023-04-18T13:09:24.169Z,6.599
2023-04-18T13:10:24.814Z,6.800
2023-04-18T13:11:23.994Z,6.699
2023-04-18T13:12:23.585Z,6.300
2023-04-18T13:13:24.012Z,6.199
2023-04-18T13:14:23.674Z,5.400
2023-04-18T13:15:24.536Z,6.5
2023-04-18T13:16:23.763Z,6.199
2023-04-18T13:17:23.927Z,6.400
2023-04-18T13:18:23.855Z,6.599
2023-04-18T13:19:24.066Z,6.5
2023-04-18T13:20:23.998Z,6.099
2023-04-18T13:21:23.220Z,6
2023-04-18T13:22:24.257Z,5.800
2023-04-18T13:24:23.613Z,5.699
2023-04-18T13:25:24.098Z,5.199
2023-04-18T13:26:24.486Z,5.099
2023-04-18T13:28:30.798Z,5.199
2023-04-18T13:29:24.070Z,5.699
2023-04-18T13:30:24.548Z,5.099
2023-04-18T13:31:23.820Z,5.199
2023-04-18T13:32:24.714Z,5.699
2023-04-18T13:33:24.354Z,5.199
2023-04-18T13:34:23.917Z,5.800
2023-04-18T13:35:23.848Z,5.300
2023-04-18T13:36:24.217Z,5.699
2023-04-18T13:37:23.545Z,5.099
2023-04-18T13:38:23.900Z,5
2023-04-18T13:39:23.968Z,5.199
2023-04-18T13:40:24.135Z,5
2023-04-18T13:41:24.009Z,4.300
2023-04-18T13:42:24.130Z,4.599
2023-04-18T13:43:24.174Z,4.5
2023-04-18T13:44:24.241Z,4.699
2023-04-18T13:46:24.310Z,4.199
2023-04-18T13:47:23.959Z,4.5
2023-04-18T13:48:24.610Z,5.300
2023-04-18T13:49:23.670Z,4.900
2023-04-18T13:51:23.656Z,5
2023-04-18T13:52:23.790Z,5.099
2023-04-18T13:54:24.322Z,5.5
2023-04-18T13:55:24.024Z,5.800
2023-04-18T13:56:24.420Z,5.400
2023-04-18T13:57:23.888Z,5.300
2023-04-18T13:58:24.244Z,5.099
2023-04-18T13:59:23.753Z,5
2023-04-18T14:00:25.251Z,4.800
2023-04-18T14:01:23.880Z,5.5
2023-04-18T14:02:24.127Z,5.199
2023-04-18T14:03:23.766Z,5.400
2023-04-18T14:04:24.001Z,5
2023-04-18T14:05:23.947Z,4.900
2023-04-18T14:06:23.822Z,4.800
2023-04-18T14:07:24.279Z,5
2023-04-18T14:08:28.773Z,4.5
2023-04-18T14:09:23.654Z,4.300
2023-04-18T14:11:24.012Z,5.099
2023-04-18T14:12:23.876Z,5.199
2023-04-18T14:14:23.732Z,5
2023-04-18T14:15:24.359Z,4.900
2023-04-18T14:16:24.113Z,4.699
2023-04-18T14:17:24.102Z,5.400
2023-04-18T14:18:23.456Z,4.599
2023-04-18T14:20:24.399Z,4.800
2023-04-18T14:21:23.854Z,4.5
2023-04-18T14:22:23.962Z,4.699
2023-04-18T14:24:23.825Z,4.800
2023-04-18T14:25:24.451Z,5
2023-04-18T14:26:23.809Z,5.099
2023-04-18T14:27:23.925Z,4.699
2023-04-18T14:28:24.269Z,5
2023-04-18T14:29:23.960Z,5.199
2023-04-18T14:30:24.721Z,5.400
2023-04-18T14:31:24.252Z,5.599
2023-04-18T14:32:23.777Z,5.800
2023-04-18T14:33:24.183Z,6
2023-04-18T14:34:23.933Z,6.300